sensor_id;sensor_type;location;lat;lon;timestamp;P1;durP1;ratioP1;P2;durP2;ratioP2
79460;SDS011;68929;42.666;23.324;2023-09-18T00:01:47;15.45;;;14.05;;
79460;SDS011;68929;42.666;23.324;2023-09-18T00:04:13;19.88;;;16.33;;
79460;SDS011;68929;42.666;23.324;2023-09-18T00:06:38;23.80;;;20.58;;
79460;SDS011;68929;42.666;23.324;2023-09-18T00:09:04;22.77;;;20.48;;
79460;SDS011;68929;42.666;23.324;2023-09-18T00:11:29;18.73;;;16.98;;
79460;SDS011;68929;42.666;23.324;2023-09-18T00:13:55;28.20;;;25.48;;
79460;SDS011;68929;42.666;23.324;2023-09-18T00:16:20;19.35;;;17.50;;
79460;SDS011;68929;42.666;23.324;2023-09-18T00:18:45;24.95;;;22.35;;
79460;SDS011;68929;42.666;23.324;2023-09-18T00:21:11;27.33;;;24.45;;
79460;SDS011;68929;42.666;23.324;2023-09-18T00:23:37;24.60;;;22.25;;
79460;SDS011;68929;42.666;23.324;2023-09-18T00:26:03;23.48;;;21.08;;
79460;SDS011;68929;42.666;23.324;2023-09-18T00:28:28;24.70;;;19.83;;
79460;SDS011;68929;42.666;23.324;2023-09-18T00:30:54;21.13;;;19.20;;
79460;SDS011;68929;42.666;23.324;2023-09-18T00:33:19;29.45;;;26.17;;
79460;SDS011;68929;42.666;23.324;2023-09-18T00:35:48;26.52;;;24.02;;
79460;SDS011;68929;42.666;23.324;2023-09-18T00:38:15;23.92;;;21.65;;
79460;SDS011;68929;42.666;23.324;2023-09-18T00:40:41;25.55;;;23.10;;
79460;SDS011;68929;42.666;23.324;2023-09-18T00:43:09;23.65;;;21.40;;
79460;SDS011;68929;42.666;23.324;2023-09-18T00:45:38;27.00;;;24.33;;
79460;SDS011;68929;42.666;23.324;2023-09-18T00:50:32;24.70;;;22.42;;
79460;SDS011;68929;42.666;23.324;2023-09-18T00:52:58;28.15;;;25.25;;
79460;SDS011;68929;42.666;23.324;2023-09-18T00:55:24;26.20;;;23.70;;
79460;SDS011;68929;42.666;23.324;2023-09-18T00:57:50;24.38;;;22.15;;
79460;SDS011;68929;42.666;23.324;2023-09-18T01:00:15;26.50;;;23.90;;
79460;SDS011;68929;42.666;23.324;2023-09-18T01:02:42;27.20;;;24.67;;
79460;SDS011;68929;42.666;23.324;2023-09-18T01:05:10;26.08;;;23.52;;
79460;SDS011;68929;42.666;23.324;2023-09-18T01:07:35;26.85;;;24.08;;
79460;SDS011;68929;42.666;23.324;2023-09-18T01:10:01;26.63;;;23.83;;
79460;SDS011;68929;42.666;23.324;2023-09-18T01:15:17;25.92;;;23.42;;
79460;SDS011;68929;42.666;23.324;2023-09-18T01:17:57;21.05;;;19.13;;
79460;SDS011;68929;42.666;23.324;2023-09-18T01:20:23;25.48;;;23.08;;
79460;SDS011;68929;42.666;23.324;2023-09-18T01:22:49;25.13;;;22.73;;
79460;SDS011;68929;42.666;23.324;2023-09-18T01:25:15;25.50;;;23.00;;
79460;SDS011;68929;42.666;23.324;2023-09-18T01:27:40;28.02;;;25.45;;
79460;SDS011;68929;42.666;23.324;2023-09-18T01:30:06;23.00;;;20.92;;
79460;SDS011;68929;42.666;23.324;2023-09-18T01:32:32;27.27;;;24.55;;
79460;SDS011;68929;42.666;23.324;2023-09-18T01:35:00;22.45;;;20.25;;
79460;SDS011;68929;42.666;23.324;2023-09-18T01:37:27;23.83;;;21.58;;
79460;SDS011;68929;42.666;23.324;2023-09-18T01:39:55;24.63;;;22.23;;
79460;SDS011;68929;42.666;23.324;2023-09-18T01:42:24;25.02;;;22.63;;
79460;SDS011;68929;42.666;23.324;2023-09-18T01:44:51;24.45;;;22.08;;
79460;SDS011;68929;42.666;23.324;2023-09-18T01:47:18;23.35;;;21.25;;
79460;SDS011;68929;42.666;23.324;2023-09-18T01:49:45;23.35;;;20.92;;
79460;SDS011;68929;42.666;23.324;2023-09-18T01:52:11;18.23;;;16.45;;
79460;SDS011;68929;42.666;23.324;2023-09-18T01:54:36;21.38;;;19.42;;
79460;SDS011;68929;42.666;23.324;2023-09-18T01:57:03;20.38;;;18.33;;
79460;SDS011;68929;42.666;23.324;2023-09-18T01:59:29;17.90;;;16.15;;
79460;SDS011;68929;42.666;23.324;2023-09-18T02:01:55;20.92;;;18.80;;
79460;SDS011;68929;42.666;23.324;2023-09-18T02:04:25;25.45;;;22.88;;
79460;SDS011;68929;42.666;23.324;2023-09-18T02:06:57;21.23;;;19.02;;
79460;SDS011;68929;42.666;23.324;2023-09-18T02:09:23;20.67;;;18.67;;
79460;SDS011;68929;42.666;23.324;2023-09-18T02:11:48;21.90;;;19.73;;
79460;SDS011;68929;42.666;23.324;2023-09-18T02:14:14;21.70;;;19.27;;
79460;SDS011;68929;42.666;23.324;2023-09-18T02:16:40;24.85;;;21.70;;
79460;SDS011;68929;42.666;23.324;2023-09-18T02:19:08;22.40;;;20.10;;
79460;SDS011;68929;42.666;23.324;2023-09-18T02:21:35;22.85;;;20.58;;
79460;SDS011;68929;42.666;23.324;2023-09-18T02:24:01;20.02;;;18.38;;
79460;SDS011;68929;42.666;23.324;2023-09-18T02:26:27;23.38;;;21.08;;
79460;SDS011;68929;42.666;23.324;2023-09-18T02:28:53;21.23;;;19.20;;
79460;SDS011;68929;42.666;23.324;2023-09-18T02:31:19;23.60;;;21.25;;
79460;SDS011;68929;42.666;23.324;2023-09-18T02:33:45;21.08;;;19.08;;
79460;SDS011;68929;42.666;23.324;2023-09-18T02:36:12;21.27;;;19.27;;
79460;SDS011;68929;42.666;23.324;2023-09-18T02:38:37;23.67;;;21.40;;
79460;SDS011;68929;42.666;23.324;2023-09-18T02:41:03;18.85;;;17.10;;
79460;SDS011;68929;42.666;23.324;2023-09-18T02:43:28;21.00;;;18.77;;
79460;SDS011;68929;42.666;23.324;2023-09-18T02:45:54;20.88;;;18.85;;
79460;SDS011;68929;42.666;23.324;2023-09-18T02:48:19;21.73;;;19.42;;
79460;SDS011;68929;42.666;23.324;2023-09-18T02:50:45;23.42;;;20.95;;
79460;SDS011;68929;42.666;23.324;2023-09-18T02:53:17;19.08;;;17.40;;
79460;SDS011;68929;42.666;23.324;2023-09-18T02:55:46;19.40;;;17.80;;
79460;SDS011;68929;42.666;23.324;2023-09-18T02:58:12;18.33;;;16.73;;
79460;SDS011;68929;42.666;23.324;2023-09-18T03:00:41;20.42;;;18.45;;
79460;SDS011;68929;42.666;23.324;2023-09-18T03:03:08;19.88;;;18.10;;
79460;SDS011;68929;42.666;23.324;2023-09-18T03:05:33;21.33;;;19.13;;
79460;SDS011;68929;42.666;23.324;2023-09-18T03:07:59;23.83;;;21.38;;
79460;SDS011;68929;42.666;23.324;2023-09-18T03:10:24;27.38;;;24.05;;
79460;SDS011;68929;42.666;23.324;2023-09-18T03:12:50;21.33;;;19.15;;
79460;SDS011;68929;42.666;23.324;2023-09-18T03:15:15;22.90;;;20.60;;
79460;SDS011;68929;42.666;23.324;2023-09-18T03:17:40;26.48;;;23.10;;
79460;SDS011;68929;42.666;23.324;2023-09-18T03:20:07;24.17;;;21.70;;
79460;SDS011;68929;42.666;23.324;2023-09-18T03:22:34;24.92;;;22.35;;
79460;SDS011;68929;42.666;23.324;2023-09-18T03:24:59;28.35;;;25.30;;
79460;SDS011;68929;42.666;23.324;2023-09-18T03:27:26;24.80;;;22.48;;
79460;SDS011;68929;42.666;23.324;2023-09-18T03:29:59;24.40;;;21.98;;
79460;SDS011;68929;42.666;23.324;2023-09-18T03:32:24;26.95;;;21.38;;
79460;SDS011;68929;42.666;23.324;2023-09-18T03:34:50;23.13;;;20.95;;
79460;SDS011;68929;42.666;23.324;2023-09-18T03:37:16;24.52;;;22.27;;
79460;SDS011;68929;42.666;23.324;2023-09-18T03:39:42;23.42;;;20.77;;
79460;SDS011;68929;42.666;23.324;2023-09-18T03:42:07;22.52;;;20.50;;
79460;SDS011;68929;42.666;23.324;2023-09-18T03:44:32;23.70;;;21.38;;
79460;SDS011;68929;42.666;23.324;2023-09-18T03:46:58;25.75;;;23.23;;
79460;SDS011;68929;42.666;23.324;2023-09-18T03:49:23;23.10;;;20.83;;
79460;SDS011;68929;42.666;23.324;2023-09-18T03:51:49;26.77;;;23.75;;
79460;SDS011;68929;42.666;23.324;2023-09-18T03:54:14;20.02;;;18.02;;
79460;SDS011;68929;42.666;23.324;2023-09-18T03:56:40;25.90;;;21.88;;
79460;SDS011;68929;42.666;23.324;2023-09-18T03:59:05;25.83;;;23.10;;
79460;SDS011;68929;42.666;23.324;2023-09-18T04:01:31;25.42;;;23.13;;
79460;SDS011;68929;42.666;23.324;2023-09-18T04:03:56;26.05;;;23.27;;
79460;SDS011;68929;42.666;23.324;2023-09-18T04:06:35;22.33;;;20.08;;
79460;SDS011;68929;42.666;23.324;2023-09-18T04:09:01;23.38;;;20.77;;
79460;SDS011;68929;42.666;23.324;2023-09-18T04:11:27;25.95;;;23.30;;
79460;SDS011;68929;42.666;23.324;2023-09-18T04:13:53;25.33;;;22.65;;
79460;SDS011;68929;42.666;23.324;2023-09-18T04:16:18;26.58;;;23.90;;
79460;SDS011;68929;42.666;23.324;2023-09-18T04:18:44;25.95;;;23.40;;
79460;SDS011;68929;42.666;23.324;2023-09-18T04:21:09;25.60;;;23.00;;
79460;SDS011;68929;42.666;23.324;2023-09-18T04:23:38;26.25;;;23.45;;
79460;SDS011;68929;42.666;23.324;2023-09-18T04:26:04;27.75;;;25.02;;
79460;SDS011;68929;42.666;23.324;2023-09-18T04:28:30;24.73;;;21.63;;
79460;SDS011;68929;42.666;23.324;2023-09-18T04:30:59;25.75;;;22.98;;
79460;SDS011;68929;42.666;23.324;2023-09-18T04:33:27;26.98;;;24.08;;
79460;SDS011;68929;42.666;23.324;2023-09-18T04:35:54;32.20;;;27.30;;
79460;SDS011;68929;42.666;23.324;2023-09-18T04:38:23;29.10;;;26.15;;
79460;SDS011;68929;42.666;23.324;2023-09-18T04:40:48;29.85;;;26.75;;
79460;SDS011;68929;42.666;23.324;2023-09-18T04:43:13;30.02;;;26.50;;
79460;SDS011;68929;42.666;23.324;2023-09-18T04:45:39;28.88;;;25.77;;
79460;SDS011;68929;42.666;23.324;2023-09-18T04:48:08;34.88;;;31.17;;
79460;SDS011;68929;42.666;23.324;2023-09-18T04:50:34;43.28;;;35.17;;
79460;SDS011;68929;42.666;23.324;2023-09-18T04:52:59;36.38;;;30.90;;
79460;SDS011;68929;42.666;23.324;2023-09-18T04:55:25;33.28;;;29.77;;
79460;SDS011;68929;42.666;23.324;2023-09-18T04:57:50;33.28;;;28.55;;
79460;SDS011;68929;42.666;23.324;2023-09-18T05:00:18;37.55;;;28.20;;
79460;SDS011;68929;42.666;23.324;2023-09-18T05:02:55;31.55;;;27.63;;
79460;SDS011;68929;42.666;23.324;2023-09-18T05:05:21;34.70;;;28.05;;
79460;SDS011;68929;42.666;23.324;2023-09-18T05:07:47;31.95;;;26.60;;
79460;SDS011;68929;42.666;23.324;2023-09-18T05:10:19;31.17;;;27.25;;
79460;SDS011;68929;42.666;23.324;2023-09-18T05:12:45;33.95;;;30.20;;
79460;SDS011;68929;42.666;23.324;2023-09-18T05:15:14;41.45;;;31.33;;
79460;SDS011;68929;42.666;23.324;2023-09-18T05:17:45;36.70;;;31.55;;
79460;SDS011;68929;42.666;23.324;2023-09-18T05:20:13;36.50;;;29.23;;
79460;SDS011;68929;42.666;23.324;2023-09-18T05:22:53;45.28;;;34.80;;
79460;SDS011;68929;42.666;23.324;2023-09-18T05:25:44;31.40;;;28.10;;
79460;SDS011;68929;42.666;23.324;2023-09-18T05:28:40;38.90;;;30.92;;
79460;SDS011;68929;42.666;23.324;2023-09-18T05:31:19;30.48;;;27.00;;
79460;SDS011;68929;42.666;23.324;2023-09-18T05:34:02;33.53;;;29.02;;
79460;SDS011;68929;42.666;23.324;2023-09-18T05:36:47;32.33;;;28.20;;
79460;SDS011;68929;42.666;23.324;2023-09-18T05:39:22;36.58;;;29.90;;
79460;SDS011;68929;42.666;23.324;2023-09-18T05:41:56;40.47;;;31.77;;
79460;SDS011;68929;42.666;23.324;2023-09-18T05:44:28;31.60;;;28.00;;
79460;SDS011;68929;42.666;23.324;2023-09-18T05:47:01;34.65;;;30.63;;
79460;SDS011;68929;42.666;23.324;2023-09-18T05:49:53;34.42;;;29.52;;
79460;SDS011;68929;42.666;23.324;2023-09-18T05:52:26;32.88;;;29.45;;
79460;SDS011;68929;42.666;23.324;2023-09-18T05:55:10;29.35;;;26.40;;
79460;SDS011;68929;42.666;23.324;2023-09-18T05:57:43;21.63;;;19.52;;
79460;SDS011;68929;42.666;23.324;2023-09-18T06:00:15;31.65;;;25.80;;
79460;SDS011;68929;42.666;23.324;2023-09-18T06:02:49;26.25;;;22.33;;
79460;SDS011;68929;42.666;23.324;2023-09-18T06:05:20;27.02;;;23.80;;
79460;SDS011;68929;42.666;23.324;2023-09-18T06:07:49;27.17;;;24.38;;
79460;SDS011;68929;42.666;23.324;2023-09-18T06:10:19;29.65;;;26.45;;
79460;SDS011;68929;42.666;23.324;2023-09-18T06:12:48;27.58;;;24.73;;
79460;SDS011;68929;42.666;23.324;2023-09-18T06:15:20;31.65;;;27.17;;
79460;SDS011;68929;42.666;23.324;2023-09-18T06:17:47;29.30;;;24.08;;
79460;SDS011;68929;42.666;23.324;2023-09-18T06:20:13;30.92;;;27.38;;
79460;SDS011;68929;42.666;23.324;2023-09-18T06:22:59;27.92;;;25.00;;
79460;SDS011;68929;42.666;23.324;2023-09-18T06:25:33;30.38;;;27.10;;
79460;SDS011;68929;42.666;23.324;2023-09-18T06:28:00;31.35;;;28.05;;
79460;SDS011;68929;42.666;23.324;2023-09-18T06:30:32;32.95;;;27.02;;
79460;SDS011;68929;42.666;23.324;2023-09-18T06:33:07;34.05;;;27.02;;
79460;SDS011;68929;42.666;23.324;2023-09-18T06:35:38;27.30;;;23.02;;
79460;SDS011;68929;42.666;23.324;2023-09-18T06:38:10;23.50;;;20.90;;
79460;SDS011;68929;42.666;23.324;2023-09-18T06:40:41;25.02;;;22.33;;
79460;SDS011;68929;42.666;23.324;2023-09-18T06:43:10;24.50;;;22.02;;
79460;SDS011;68929;42.666;23.324;2023-09-18T06:45:39;21.23;;;19.00;;
79460;SDS011;68929;42.666;23.324;2023-09-18T06:48:07;25.60;;;21.70;;
79460;SDS011;68929;42.666;23.324;2023-09-18T06:50:41;23.65;;;20.42;;
79460;SDS011;68929;42.666;23.324;2023-09-18T06:53:09;26.65;;;22.58;;
79460;SDS011;68929;42.666;23.324;2023-09-18T06:55:37;23.33;;;20.08;;
79460;SDS011;68929;42.666;23.324;2023-09-18T06:58:07;26.60;;;23.75;;
79460;SDS011;68929;42.666;23.324;2023-09-18T07:00:34;27.13;;;21.27;;
79460;SDS011;68929;42.666;23.324;2023-09-18T07:03:00;21.13;;;18.30;;
79460;SDS011;68929;42.666;23.324;2023-09-18T07:05:26;19.48;;;17.58;;
79460;SDS011;68929;42.666;23.324;2023-09-18T07:07:53;21.52;;;19.33;;
79460;SDS011;68929;42.666;23.324;2023-09-18T07:10:21;21.40;;;19.23;;
79460;SDS011;68929;42.666;23.324;2023-09-18T07:12:58;21.92;;;19.58;;
79460;SDS011;68929;42.666;23.324;2023-09-18T07:15:23;21.67;;;19.40;;
79460;SDS011;68929;42.666;23.324;2023-09-18T07:17:53;27.40;;;22.98;;
79460;SDS011;68929;42.666;23.324;2023-09-18T07:20:22;24.38;;;20.70;;
79460;SDS011;68929;42.666;23.324;2023-09-18T07:22:50;22.65;;;20.25;;
79460;SDS011;68929;42.666;23.324;2023-09-18T07:25:20;27.13;;;22.75;;
79460;SDS011;68929;42.666;23.324;2023-09-18T07:27:47;27.05;;;21.60;;
79460;SDS011;68929;42.666;23.324;2023-09-18T07:30:13;29.85;;;21.60;;
79460;SDS011;68929;42.666;23.324;2023-09-18T07:32:47;24.10;;;21.08;;
79460;SDS011;68929;42.666;23.324;2023-09-18T07:35:23;22.67;;;20.45;;
79460;SDS011;68929;42.666;23.324;2023-09-18T07:38:00;25.33;;;22.70;;
79460;SDS011;68929;42.666;23.324;2023-09-18T07:40:26;19.85;;;17.80;;
79460;SDS011;68929;42.666;23.324;2023-09-18T07:42:57;25.83;;;23.10;;
79460;SDS011;68929;42.666;23.324;2023-09-18T07:45:26;22.67;;;20.30;;
79460;SDS011;68929;42.666;23.324;2023-09-18T07:48:12;25.35;;;20.42;;
79460;SDS011;68929;42.666;23.324;2023-09-18T07:50:47;22.15;;;19.80;;
79460;SDS011;68929;42.666;23.324;2023-09-18T07:53:15;20.98;;;19.02;;
79460;SDS011;68929;42.666;23.324;2023-09-18T07:56:01;22.70;;;18.45;;
79460;SDS011;68929;42.666;23.324;2023-09-18T07:58:51;22.80;;;20.65;;
79460;SDS011;68929;42.666;23.324;2023-09-18T08:01:17;20.85;;;18.83;;
79460;SDS011;68929;42.666;23.324;2023-09-18T08:03:43;22.00;;;19.80;;
79460;SDS011;68929;42.666;23.324;2023-09-18T08:06:09;19.50;;;17.42;;
79460;SDS011;68929;42.666;23.324;2023-09-18T08:08:37;24.88;;;21.92;;
79460;SDS011;68929;42.666;23.324;2023-09-18T08:11:08;25.02;;;22.45;;
79460;SDS011;68929;42.666;23.324;2023-09-18T08:13:43;23.92;;;21.60;;
79460;SDS011;68929;42.666;23.324;2023-09-18T08:16:12;23.65;;;21.05;;
79460;SDS011;68929;42.666;23.324;2023-09-18T08:18:43;24.73;;;19.88;;
79460;SDS011;68929;42.666;23.324;2023-09-18T08:21:09;23.65;;;21.25;;
79460;SDS011;68929;42.666;23.324;2023-09-18T08:23:39;28.02;;;21.45;;
79460;SDS011;68929;42.666;23.324;2023-09-18T08:26:08;23.00;;;20.33;;
79460;SDS011;68929;42.666;23.324;2023-09-18T08:28:52;24.15;;;21.67;;
79460;SDS011;68929;42.666;23.324;2023-09-18T08:31:32;24.52;;;19.90;;
79460;SDS011;68929;42.666;23.324;2023-09-18T08:33:59;22.08;;;19.15;;
79460;SDS011;68929;42.666;23.324;2023-09-18T08:36:34;23.27;;;20.77;;
79460;SDS011;68929;42.666;23.324;2023-09-18T08:39:26;21.88;;;19.52;;
79460;SDS011;68929;42.666;23.324;2023-09-18T08:42:07;21.98;;;19.67;;
79460;SDS011;68929;42.666;23.324;2023-09-18T08:44:39;24.23;;;21.25;;
79460;SDS011;68929;42.666;23.324;2023-09-18T08:47:52;16.85;;;15.20;;
79460;SDS011;68929;42.666;23.324;2023-09-18T08:50:36;24.98;;;18.52;;
79460;SDS011;68929;42.666;23.324;2023-09-18T08:53:16;23.08;;;20.60;;
79460;SDS011;68929;42.666;23.324;2023-09-18T08:55:52;19.88;;;17.80;;
79460;SDS011;68929;42.666;23.324;2023-09-18T08:58:35;19.23;;;17.33;;
79460;SDS011;68929;42.666;23.324;2023-09-18T09:01:19;22.08;;;19.73;;
79460;SDS011;68929;42.666;23.324;2023-09-18T09:03:49;23.27;;;18.38;;
79460;SDS011;68929;42.666;23.324;2023-09-18T09:06:28;21.08;;;19.02;;
79460;SDS011;68929;42.666;23.324;2023-09-18T09:09:06;17.27;;;15.75;;
79460;SDS011;68929;42.666;23.324;2023-09-18T09:11:37;19.13;;;16.95;;
79460;SDS011;68929;42.666;23.324;2023-09-18T09:15:01;15.23;;;13.77;;
79460;SDS011;68929;42.666;23.324;2023-09-18T09:17:45;16.08;;;14.43;;
79460;SDS011;68929;42.666;23.324;2023-09-18T09:20:14;17.25;;;15.27;;
79460;SDS011;68929;42.666;23.324;2023-09-18T09:22:45;16.00;;;14.32;;
79460;SDS011;68929;42.666;23.324;2023-09-18T09:25:25;15.95;;;14.25;;
79460;SDS011;68929;42.666;23.324;2023-09-18T09:27:55;19.20;;;14.48;;
79460;SDS011;68929;42.666;23.324;2023-09-18T09:30:34;16.33;;;14.73;;
79460;SDS011;68929;42.666;23.324;2023-09-18T09:33:02;15.20;;;13.73;;
79460;SDS011;68929;42.666;23.324;2023-09-18T09:35:38;16.42;;;14.73;;
79460;SDS011;68929;42.666;23.324;2023-09-18T09:38:15;15.98;;;14.38;;
79460;SDS011;68929;42.666;23.324;2023-09-18T09:40:45;15.40;;;13.90;;
79460;SDS011;68929;42.666;23.324;2023-09-18T09:43:12;15.25;;;13.75;;
79460;SDS011;68929;42.666;23.324;2023-09-18T09:45:41;16.40;;;14.70;;
79460;SDS011;68929;42.666;23.324;2023-09-18T09:48:13;16.65;;;14.90;;
79460;SDS011;68929;42.666;23.324;2023-09-18T09:50:45;17.33;;;14.15;;
79460;SDS011;68929;42.666;23.324;2023-09-18T09:53:17;15.23;;;13.77;;
79460;SDS011;68929;42.666;23.324;2023-09-18T09:55:51;15.10;;;13.52;;
79460;SDS011;68929;42.666;23.324;2023-09-18T09:58:39;16.13;;;14.43;;
79460;SDS011;68929;42.666;23.324;2023-09-18T10:01:15;12.93;;;11.63;;
79460;SDS011;68929;42.666;23.324;2023-09-18T10:03:43;14.55;;;13.00;;
79460;SDS011;68929;42.666;23.324;2023-09-18T10:06:14;16.52;;;13.68;;
79460;SDS011;68929;42.666;23.324;2023-09-18T10:08:42;13.60;;;12.20;;
79460;SDS011;68929;42.666;23.324;2023-09-18T10:11:11;13.30;;;11.57;;
79460;SDS011;68929;42.666;23.324;2023-09-18T10:16:17;11.75;;;10.65;;
79460;SDS011;68929;42.666;23.324;2023-09-18T10:21:25;11.93;;;10.30;;
79460;SDS011;68929;42.666;23.324;2023-09-18T10:27:14;11.55;;;10.45;;
79460;SDS011;68929;42.666;23.324;2023-09-18T10:29:53;12.18;;;10.85;;
79460;SDS011;68929;42.666;23.324;2023-09-18T10:32:51;11.70;;;10.45;;
79460;SDS011;68929;42.666;23.324;2023-09-18T10:35:29;12.55;;;10.95;;
79460;SDS011;68929;42.666;23.324;2023-09-18T10:38:05;10.77;;;9.75;;
79460;SDS011;68929;42.666;23.324;2023-09-18T10:40:32;10.77;;;9.65;;
79460;SDS011;68929;42.666;23.324;2023-09-18T10:43:08;10.85;;;9.70;;
79460;SDS011;68929;42.666;23.324;2023-09-18T10:45:38;10.63;;;9.55;;
79460;SDS011;68929;42.666;23.324;2023-09-18T10:48:18;11.50;;;8.40;;
79460;SDS011;68929;42.666;23.324;2023-09-18T10:50:45;9.23;;;8.32;;
79460;SDS011;68929;42.666;23.324;2023-09-18T10:53:12;14.52;;;8.02;;
79460;SDS011;68929;42.666;23.324;2023-09-18T10:55:40;10.18;;;8.85;;
79460;SDS011;68929;42.666;23.324;2023-09-18T10:58:08;9.00;;;8.20;;
79460;SDS011;68929;42.666;23.324;2023-09-18T11:01:16;8.13;;;7.40;;
79460;SDS011;68929;42.666;23.324;2023-09-18T11:03:45;8.80;;;7.68;;
79460;SDS011;68929;42.666;23.324;2023-09-18T11:06:15;10.57;;;8.18;;
79460;SDS011;68929;42.666;23.324;2023-09-18T11:08:48;7.97;;;6.13;;
79460;SDS011;68929;42.666;23.324;2023-09-18T11:11:54;7.57;;;6.80;;
79460;SDS011;68929;42.666;23.324;2023-09-18T11:14:56;9.23;;;6.53;;
79460;SDS011;68929;42.666;23.324;2023-09-18T11:17:42;7.47;;;6.78;;
79460;SDS011;68929;42.666;23.324;2023-09-18T11:23:19;6.82;;;6.15;;
79460;SDS011;68929;42.666;23.324;2023-09-18T11:25:45;6.80;;;5.53;;
79460;SDS011;68929;42.666;23.324;2023-09-18T11:28:26;7.35;;;5.72;;
